sensor_id;sensor_type;location;lat;lon;timestamp;temperature;humidity
49731;DHT22;35622;52.008;5.426;2022-12-11T00:02:11;6.70;71.60
49731;DHT22;35622;52.008;5.426;2022-12-11T00:04:36;6.70;71.50
49731;DHT22;35622;52.008;5.426;2022-12-11T00:07:02;6.70;71.30
49731;DHT22;35622;52.008;5.426;2022-12-11T00:09:28;6.70;71.20
49731;DHT22;35622;52.008;5.426;2022-12-11T00:11:53;6.70;71.10
49731;DHT22;35622;52.008;5.426;2022-12-11T00:14:19;6.70;71.00
49731;DHT22;35622;52.008;5.426;2022-12-11T00:16:47;6.70;71.20
49731;DHT22;35622;52.008;5.426;2022-12-11T00:19:13;6.70;71.20
49731;DHT22;35622;52.008;5.426;2022-12-11T00:21:38;6.60;70.80
49731;DHT22;35622;52.008;5.426;2022-12-11T00:24:04;6.60;71.10
49731;DHT22;35622;52.008;5.426;2022-12-11T00:26:30;6.60;72.10
49731;DHT22;35622;52.008;5.426;2022-12-11T00:28:56;6.70;71.40
49731;DHT22;35622;52.008;5.426;2022-12-11T00:31:22;6.60;71.30
49731;DHT22;35622;52.008;5.426;2022-12-11T00:33:50;6.60;71.40
49731;DHT22;35622;52.008;5.426;2022-12-11T00:36:19;6.50;71.40
49731;DHT22;35622;52.008;5.426;2022-12-11T00:38:45;6.60;71.80
49731;DHT22;35622;52.008;5.426;2022-12-11T00:41:11;6.70;71.30
49731;DHT22;35622;52.008;5.426;2022-12-11T00:43:37;6.60;71.60
49731;DHT22;35622;52.008;5.426;2022-12-11T00:46:03;6.50;71.90
49731;DHT22;35622;52.008;5.426;2022-12-11T00:48:29;6.50;72.00
49731;DHT22;35622;52.008;5.426;2022-12-11T00:50:54;6.50;72.30
49731;DHT22;35622;52.008;5.426;2022-12-11T00:53:20;6.70;72.00
49731;DHT22;35622;52.008;5.426;2022-12-11T00:55:45;6.60;71.90
49731;DHT22;35622;52.008;5.426;2022-12-11T00:58:12;6.70;72.00
49731;DHT22;35622;52.008;5.426;2022-12-11T01:00:38;6.60;71.50
49731;DHT22;35622;52.008;5.426;2022-12-11T01:03:04;6.70;71.90
49731;DHT22;35622;52.008;5.426;2022-12-11T01:05:30;6.80;71.80
49731;DHT22;35622;52.008;5.426;2022-12-11T01:07:56;6.70;71.70
49731;DHT22;35622;52.008;5.426;2022-12-11T01:10:21;6.60;72.10
49731;DHT22;35622;52.008;5.426;2022-12-11T01:12:53;6.60;72.10
49731;DHT22;35622;52.008;5.426;2022-12-11T01:15:21;6.60;72.60
49731;DHT22;35622;52.008;5.426;2022-12-11T01:17:48;6.40;72.70
49731;DHT22;35622;52.008;5.426;2022-12-11T01:20:14;6.40;73.20
49731;DHT22;35622;52.008;5.426;2022-12-11T01:22:39;6.50;73.00
49731;DHT22;35622;52.008;5.426;2022-12-11T01:25:05;6.70;72.90
49731;DHT22;35622;52.008;5.426;2022-12-11T01:27:31;6.60;72.30
49731;DHT22;35622;52.008;5.426;2022-12-11T01:29:57;6.60;72.40
49731;DHT22;35622;52.008;5.426;2022-12-11T01:32:22;6.70;72.20
49731;DHT22;35622;52.008;5.426;2022-12-11T01:34:48;6.70;71.70
49731;DHT22;35622;52.008;5.426;2022-12-11T01:37:13;6.70;72.20
49731;DHT22;35622;52.008;5.426;2022-12-11T01:39:39;6.60;72.50
49731;DHT22;35622;52.008;5.426;2022-12-11T01:42:05;6.70;72.70
49731;DHT22;35622;52.008;5.426;2022-12-11T01:47:00;6.70;72.00
49731;DHT22;35622;52.008;5.426;2022-12-11T01:49:26;6.50;72.90
49731;DHT22;35622;52.008;5.426;2022-12-11T01:52:09;6.50;73.30
49731;DHT22;35622;52.008;5.426;2022-12-11T01:54:36;6.60;72.90
49731;DHT22;35622;52.008;5.426;2022-12-11T01:57:03;6.60;72.90
49731;DHT22;35622;52.008;5.426;2022-12-11T01:59:31;6.60;72.90
49731;DHT22;35622;52.008;5.426;2022-12-11T02:02:16;6.50;73.30
49731;DHT22;35622;52.008;5.426;2022-12-11T02:04:44;6.50;73.50
49731;DHT22;35622;52.008;5.426;2022-12-11T02:07:10;6.60;73.30
49731;DHT22;35622;52.008;5.426;2022-12-11T02:09:37;6.60;72.90
49731;DHT22;35622;52.008;5.426;2022-12-11T02:17:21;6.40;73.00
49731;DHT22;35622;52.008;5.426;2022-12-11T02:28:19;6.70;73.10
49731;DHT22;35622;52.008;5.426;2022-12-11T02:30:51;6.80;72.80
49731;DHT22;35622;52.008;5.426;2022-12-11T02:33:22;6.80;72.40
49731;DHT22;35622;52.008;5.426;2022-12-11T02:35:48;6.80;72.30
49731;DHT22;35622;52.008;5.426;2022-12-11T02:38:23;6.70;72.20
49731;DHT22;35622;52.008;5.426;2022-12-11T02:40:53;6.70;72.30
49731;DHT22;35622;52.008;5.426;2022-12-11T02:43:20;6.80;72.30
49731;DHT22;35622;52.008;5.426;2022-12-11T02:45:48;6.80;71.80
49731;DHT22;35622;52.008;5.426;2022-12-11T02:48:16;6.80;71.70
49731;DHT22;35622;52.008;5.426;2022-12-11T02:50:45;6.70;72.00
49731;DHT22;35622;52.008;5.426;2022-12-11T02:53:14;6.80;71.70
49731;DHT22;35622;52.008;5.426;2022-12-11T02:55:41;6.70;71.90
49731;DHT22;35622;52.008;5.426;2022-12-11T02:58:16;6.80;71.80
49731;DHT22;35622;52.008;5.426;2022-12-11T03:00:44;6.70;72.00
49731;DHT22;35622;52.008;5.426;2022-12-11T03:03:10;6.80;72.00
49731;DHT22;35622;52.008;5.426;2022-12-11T03:05:35;6.90;71.70
49731;DHT22;35622;52.008;5.426;2022-12-11T03:08:01;6.90;71.70
49731;DHT22;35622;52.008;5.426;2022-12-11T03:10:26;6.90;71.00
49731;DHT22;35622;52.008;5.426;2022-12-11T03:12:54;6.90;71.60
49731;DHT22;35622;52.008;5.426;2022-12-11T03:15:26;6.80;71.80
49731;DHT22;35622;52.008;5.426;2022-12-11T03:18:19;6.60;71.30
49731;DHT22;35622;52.008;5.426;2022-12-11T03:21:05;6.60;72.50
49731;DHT22;35622;52.008;5.426;2022-12-11T03:26:07;6.70;72.60
49731;DHT22;35622;52.008;5.426;2022-12-11T03:28:42;6.70;72.10
49731;DHT22;35622;52.008;5.426;2022-12-11T03:31:13;6.70;72.20
49731;DHT22;35622;52.008;5.426;2022-12-11T03:33:45;6.60;72.60
49731;DHT22;35622;52.008;5.426;2022-12-11T03:36:17;6.70;72.30
49731;DHT22;35622;52.008;5.426;2022-12-11T03:38:48;6.90;72.00
49731;DHT22;35622;52.008;5.426;2022-12-11T03:41:17;6.80;71.90
49731;DHT22;35622;52.008;5.426;2022-12-11T03:43:44;6.80;72.00
49731;DHT22;35622;52.008;5.426;2022-12-11T03:46:12;6.70;72.30
49731;DHT22;35622;52.008;5.426;2022-12-11T03:48:39;6.90;72.20
49731;DHT22;35622;52.008;5.426;2022-12-11T03:51:06;6.80;72.30
49731;DHT22;35622;52.008;5.426;2022-12-11T03:53:34;6.80;72.10
49731;DHT22;35622;52.008;5.426;2022-12-11T03:56:02;6.80;72.30
49731;DHT22;35622;52.008;5.426;2022-12-11T03:58:28;6.80;72.60
49731;DHT22;35622;52.008;5.426;2022-12-11T04:00:54;6.80;72.50
49731;DHT22;35622;52.008;5.426;2022-12-11T04:03:20;7.00;72.30
49731;DHT22;35622;52.008;5.426;2022-12-11T04:05:47;7.00;72.20
49731;DHT22;35622;52.008;5.426;2022-12-11T04:08:14;7.10;71.60
49731;DHT22;35622;52.008;5.426;2022-12-11T04:10:40;7.10;71.20
49731;DHT22;35622;52.008;5.426;2022-12-11T04:13:06;7.10;71.30
49731;DHT22;35622;52.008;5.426;2022-12-11T04:15:33;7.00;70.90
49731;DHT22;35622;52.008;5.426;2022-12-11T04:17:58;6.90;71.10
49731;DHT22;35622;52.008;5.426;2022-12-11T04:20:43;6.90;71.00
49731;DHT22;35622;52.008;5.426;2022-12-11T04:23:26;6.90;71.40
49731;DHT22;35622;52.008;5.426;2022-12-11T04:26:14;6.80;71.40
49731;DHT22;35622;52.008;5.426;2022-12-11T04:28:41;6.90;71.30
49731;DHT22;35622;52.008;5.426;2022-12-11T04:31:14;6.90;71.70
49731;DHT22;35622;52.008;5.426;2022-12-11T04:33:40;6.90;71.50
49731;DHT22;35622;52.008;5.426;2022-12-11T04:36:06;6.90;71.80
49731;DHT22;35622;52.008;5.426;2022-12-11T04:38:32;6.90;71.40
49731;DHT22;35622;52.008;5.426;2022-12-11T04:40:59;6.80;71.40
49731;DHT22;35622;52.008;5.426;2022-12-11T04:43:25;6.60;71.40
49731;DHT22;35622;52.008;5.426;2022-12-11T04:46:08;6.70;72.30
49731;DHT22;35622;52.008;5.426;2022-12-11T04:48:35;6.80;72.10
49731;DHT22;35622;52.008;5.426;2022-12-11T04:51:01;6.80;71.90
49731;DHT22;35622;52.008;5.426;2022-12-11T04:53:27;7.00;71.10
49731;DHT22;35622;52.008;5.426;2022-12-11T04:55:53;6.90;70.90
49731;DHT22;35622;52.008;5.426;2022-12-11T04:58:19;6.90;71.30
49731;DHT22;35622;52.008;5.426;2022-12-11T05:00:44;6.90;71.30
49731;DHT22;35622;52.008;5.426;2022-12-11T05:03:10;6.80;71.60
49731;DHT22;35622;52.008;5.426;2022-12-11T05:05:36;6.80;71.50
49731;DHT22;35622;52.008;5.426;2022-12-11T05:08:01;6.90;71.30
49731;DHT22;35622;52.008;5.426;2022-12-11T05:10:27;6.80;71.30
49731;DHT22;35622;52.008;5.426;2022-12-11T05:12:53;6.70;71.50
49731;DHT22;35622;52.008;5.426;2022-12-11T05:15:18;6.80;71.40
49731;DHT22;35622;52.008;5.426;2022-12-11T05:17:44;6.80;71.30
49731;DHT22;35622;52.008;5.426;2022-12-11T05:20:10;6.90;71.00
49731;DHT22;35622;52.008;5.426;2022-12-11T05:22:36;6.90;70.70
49731;DHT22;35622;52.008;5.426;2022-12-11T05:25:03;6.80;70.50
49731;DHT22;35622;52.008;5.426;2022-12-11T05:27:28;6.70;71.00
49731;DHT22;35622;52.008;5.426;2022-12-11T05:29:54;6.70;71.00
49731;DHT22;35622;52.008;5.426;2022-12-11T05:32:20;6.60;71.10
49731;DHT22;35622;52.008;5.426;2022-12-11T05:34:45;6.60;71.60
49731;DHT22;35622;52.008;5.426;2022-12-11T05:37:11;6.60;71.90
49731;DHT22;35622;52.008;5.426;2022-12-11T05:39:37;6.70;71.80
49731;DHT22;35622;52.008;5.426;2022-12-11T05:42:03;6.70;71.70
49731;DHT22;35622;52.008;5.426;2022-12-11T05:44:28;6.70;71.70
49731;DHT22;35622;52.008;5.426;2022-12-11T05:46:54;6.80;71.50
49731;DHT22;35622;52.008;5.426;2022-12-11T05:49:20;6.90;70.80
49731;DHT22;35622;52.008;5.426;2022-12-11T05:51:46;6.70;71.00
49731;DHT22;35622;52.008;5.426;2022-12-11T05:54:11;6.70;71.40
49731;DHT22;35622;52.008;5.426;2022-12-11T05:56:37;6.80;71.20
49731;DHT22;35622;52.008;5.426;2022-12-11T05:59:04;6.80;70.60
49731;DHT22;35622;52.008;5.426;2022-12-11T06:01:38;6.80;70.60
49731;DHT22;35622;52.008;5.426;2022-12-11T06:04:05;6.80;70.20
49731;DHT22;35622;52.008;5.426;2022-12-11T06:06:31;6.80;69.80
49731;DHT22;35622;52.008;5.426;2022-12-11T06:08:58;6.80;70.30
49731;DHT22;35622;52.008;5.426;2022-12-11T06:11:25;6.70;70.70
49731;DHT22;35622;52.008;5.426;2022-12-11T06:13:52;6.70;71.00
49731;DHT22;35622;52.008;5.426;2022-12-11T06:16:19;6.90;70.70
49731;DHT22;35622;52.008;5.426;2022-12-11T06:18:44;6.80;70.30
49731;DHT22;35622;52.008;5.426;2022-12-11T06:23:37;6.90;70.20
49731;DHT22;35622;52.008;5.426;2022-12-11T06:26:03;6.70;70.00
49731;DHT22;35622;52.008;5.426;2022-12-11T06:28:29;6.50;70.60
49731;DHT22;35622;52.008;5.426;2022-12-11T06:30:58;6.40;71.50
49731;DHT22;35622;52.008;5.426;2022-12-11T06:33:24;6.50;71.20
49731;DHT22;35622;52.008;5.426;2022-12-11T06:35:50;6.40;71.70
49731;DHT22;35622;52.008;5.426;2022-12-11T06:38:15;6.50;71.60
49731;DHT22;35622;52.008;5.426;2022-12-11T06:40:41;6.50;71.20
49731;DHT22;35622;52.008;5.426;2022-12-11T06:43:07;6.60;71.30
49731;DHT22;35622;52.008;5.426;2022-12-11T06:45:32;6.70;70.80
49731;DHT22;35622;52.008;5.426;2022-12-11T06:47:58;6.60;70.80
49731;DHT22;35622;52.008;5.426;2022-12-11T06:50:24;6.60;70.80
49731;DHT22;35622;52.008;5.426;2022-12-11T06:52:49;6.60;71.10
49731;DHT22;35622;52.008;5.426;2022-12-11T06:55:15;6.60;71.00
49731;DHT22;35622;52.008;5.426;2022-12-11T06:57:40;6.50;71.10
49731;DHT22;35622;52.008;5.426;2022-12-11T07:00:06;6.50;71.20
49731;DHT22;35622;52.008;5.426;2022-12-11T07:02:32;6.60;71.40
49731;DHT22;35622;52.008;5.426;2022-12-11T07:04:57;6.60;71.40
49731;DHT22;35622;52.008;5.426;2022-12-11T07:07:23;6.60;70.80
49731;DHT22;35622;52.008;5.426;2022-12-11T07:09:49;6.60;70.80
49731;DHT22;35622;52.008;5.426;2022-12-11T07:12:16;6.60;71.30
49731;DHT22;35622;52.008;5.426;2022-12-11T07:14:41;6.50;71.50
49731;DHT22;35622;52.008;5.426;2022-12-11T07:17:07;6.70;71.30
49731;DHT22;35622;52.008;5.426;2022-12-11T07:19:32;6.70;71.00
49731;DHT22;35622;52.008;5.426;2022-12-11T07:21:58;6.70;70.80
49731;DHT22;35622;52.008;5.426;2022-12-11T07:24:24;6.70;70.90
49731;DHT22;35622;52.008;5.426;2022-12-11T07:26:49;6.80;70.60
49731;DHT22;35622;52.008;5.426;2022-12-11T07:29:15;6.90;70.00
49731;DHT22;35622;52.008;5.426;2022-12-11T07:31:40;6.90;69.40
49731;DHT22;35622;52.008;5.426;2022-12-11T07:34:06;6.80;69.70
49731;DHT22;35622;52.008;5.426;2022-12-11T07:36:32;6.80;69.80
49731;DHT22;35622;52.008;5.426;2022-12-11T07:38:59;6.80;70.00
49731;DHT22;35622;52.008;5.426;2022-12-11T07:41:25;6.80;69.80
49731;DHT22;35622;52.008;5.426;2022-12-11T07:43:53;6.70;69.90
49731;DHT22;35622;52.008;5.426;2022-12-11T07:46:22;6.80;70.10
49731;DHT22;35622;52.008;5.426;2022-12-11T07:48:48;6.80;69.80
49731;DHT22;35622;52.008;5.426;2022-12-11T07:51:17;6.70;70.00
49731;DHT22;35622;52.008;5.426;2022-12-11T07:53:48;6.70;70.30
49731;DHT22;35622;52.008;5.426;2022-12-11T07:56:14;6.80;69.80
49731;DHT22;35622;52.008;5.426;2022-12-11T07:58:40;6.80;69.60
49731;DHT22;35622;52.008;5.426;2022-12-11T08:01:12;6.60;69.80
49731;DHT22;35622;52.008;5.426;2022-12-11T08:03:39;6.60;70.20
49731;DHT22;35622;52.008;5.426;2022-12-11T08:06:04;6.50;70.00
49731;DHT22;35622;52.008;5.426;2022-12-11T08:08:31;6.50;70.50
49731;DHT22;35622;52.008;5.426;2022-12-11T08:11:02;6.60;70.50
49731;DHT22;35622;52.008;5.426;2022-12-11T08:13:28;6.50;70.60
49731;DHT22;35622;52.008;5.426;2022-12-11T08:15:54;6.60;70.40
49731;DHT22;35622;52.008;5.426;2022-12-11T08:18:19;6.50;70.20
49731;DHT22;35622;52.008;5.426;2022-12-11T08:20:45;6.60;70.40
49731;DHT22;35622;52.008;5.426;2022-12-11T08:23:10;6.40;70.60
49731;DHT22;35622;52.008;5.426;2022-12-11T08:25:36;6.40;70.00
49731;DHT22;35622;52.008;5.426;2022-12-11T08:28:01;6.20;70.20
49731;DHT22;35622;52.008;5.426;2022-12-11T08:30:27;6.30;70.30
49731;DHT22;35622;52.008;5.426;2022-12-11T08:32:53;6.30;70.40
49731;DHT22;35622;52.008;5.426;2022-12-11T08:35:19;6.20;70.40
49731;DHT22;35622;52.008;5.426;2022-12-11T08:37:45;6.40;70.10
49731;DHT22;35622;52.008;5.426;2022-12-11T08:40:11;6.20;70.30
49731;DHT22;35622;52.008;5.426;2022-12-11T08:42:37;6.20;70.80
49731;DHT22;35622;52.008;5.426;2022-12-11T08:45:03;6.30;71.20
49731;DHT22;35622;52.008;5.426;2022-12-11T08:47:29;6.40;71.00
49731;DHT22;35622;52.008;5.426;2022-12-11T08:49:54;6.50;70.20
49731;DHT22;35622;52.008;5.426;2022-12-11T08:52:21;6.70;70.20
49731;DHT22;35622;52.008;5.426;2022-12-11T08:54:46;6.70;70.10
49731;DHT22;35622;52.008;5.426;2022-12-11T08:57:12;6.70;70.00
49731;DHT22;35622;52.008;5.426;2022-12-11T08:59:38;6.70;70.20
49731;DHT22;35622;52.008;5.426;2022-12-11T09:02:04;6.70;70.00
49731;DHT22;35622;52.008;5.426;2022-12-11T09:04:29;6.80;70.20
49731;DHT22;35622;52.008;5.426;2022-12-11T09:06:55;6.80;70.00
49731;DHT22;35622;52.008;5.426;2022-12-11T09:09:20;6.80;70.00
49731;DHT22;35622;52.008;5.426;2022-12-11T09:11:46;7.10;70.20
49731;DHT22;35622;52.008;5.426;2022-12-11T09:14:12;7.30;69.50
49731;DHT22;35622;52.008;5.426;2022-12-11T09:16:39;7.40;68.90
49731;DHT22;35622;52.008;5.426;2022-12-11T09:19:06;7.50;68.30
49731;DHT22;35622;52.008;5.426;2022-12-11T09:21:32;7.70;67.10
49731;DHT22;35622;52.008;5.426;2022-12-11T09:23:59;7.60;66.60
49731;DHT22;35622;52.008;5.426;2022-12-11T09:26:26;7.60;66.60
49731;DHT22;35622;52.008;5.426;2022-12-11T09:28:52;7.60;66.70
49731;DHT22;35622;52.008;5.426;2022-12-11T09:31:24;7.60;66.70
49731;DHT22;35622;52.008;5.426;2022-12-11T09:33:52;7.50;66.90
49731;DHT22;35622;52.008;5.426;2022-12-11T09:36:18;7.40;66.90
49731;DHT22;35622;52.008;5.426;2022-12-11T09:38:44;7.10;67.10
49731;DHT22;35622;52.008;5.426;2022-12-11T09:44:05;7.20;67.50
49731;DHT22;35622;52.008;5.426;2022-12-11T09:46:34;7.40;67.00
49731;DHT22;35622;52.008;5.426;2022-12-11T09:49:02;7.40;67.20
49731;DHT22;35622;52.008;5.426;2022-12-11T09:51:39;7.50;67.10
49731;DHT22;35622;52.008;5.426;2022-12-11T09:54:06;7.60;67.30
49731;DHT22;35622;52.008;5.426;2022-12-11T09:56:40;7.80;66.90
49731;DHT22;35622;52.008;5.426;2022-12-11T10:04:54;7.80;66.20
49731;DHT22;35622;52.008;5.426;2022-12-11T10:07:40;7.80;65.70
49731;DHT22;35622;52.008;5.426;2022-12-11T10:15:53;7.80;65.70
49731;DHT22;35622;52.008;5.426;2022-12-11T10:18:23;7.90;65.60
49731;DHT22;35622;52.008;5.426;2022-12-11T10:20:51;7.90;65.60
49731;DHT22;35622;52.008;5.426;2022-12-11T10:23:24;7.90;65.40
49731;DHT22;35622;52.008;5.426;2022-12-11T10:25:57;7.80;65.40
49731;DHT22;35622;52.008;5.426;2022-12-11T10:28:27;7.60;65.70
49731;DHT22;35622;52.008;5.426;2022-12-11T10:35:55;7.80;66.20
49731;DHT22;35622;52.008;5.426;2022-12-11T10:38:28;7.80;67.30
49731;DHT22;35622;52.008;5.426;2022-12-11T10:41:05;7.70;66.00
49731;DHT22;35622;52.008;5.426;2022-12-11T10:43:43;7.70;65.80
49731;DHT22;35622;52.008;5.426;2022-12-11T10:46:18;7.80;66.20
49731;DHT22;35622;52.008;5.426;2022-12-11T10:48:49;8.00;66.10
49731;DHT22;35622;52.008;5.426;2022-12-11T10:51:15;7.90;66.20
49731;DHT22;35622;52.008;5.426;2022-12-11T10:53:41;7.90;66.60
49731;DHT22;35622;52.008;5.426;2022-12-11T10:56:10;8.00;66.30
49731;DHT22;35622;52.008;5.426;2022-12-11T10:58:39;8.20;66.20
49731;DHT22;35622;52.008;5.426;2022-12-11T11:01:18;8.20;65.60
49731;DHT22;35622;52.008;5.426;2022-12-11T11:07:14;7.50;65.80
49731;DHT22;35622;52.008;5.426;2022-12-11T11:09:41;7.40;66.20
49731;DHT22;35622;52.008;5.426;2022-12-11T11:12:26;7.40;67.10
49731;DHT22;35622;52.008;5.426;2022-12-11T11:17:30;7.60;66.40
49731;DHT22;35622;52.008;5.426;2022-12-11T11:20:00;7.60;66.40
49731;DHT22;35622;52.008;5.426;2022-12-11T11:22:30;7.60;66.90
49731;DHT22;35622;52.008;5.426;2022-12-11T11:24:57;8.00;66.40
49731;DHT22;35622;52.008;5.426;2022-12-11T11:29:57;8.20;66.20
49731;DHT22;35622;52.008;5.426;2022-12-11T11:32:38;8.20;65.30
49731;DHT22;35622;52.008;5.426;2022-12-11T11:35:25;8.20;64.70
49731;DHT22;35622;52.008;5.426;2022-12-11T11:38:11;8.20;65.10
49731;DHT22;35622;52.008;5.426;2022-12-11T11:40:45;8.30;65.20
49731;DHT22;35622;52.008;5.426;2022-12-11T11:43:20;8.20;65.30
49731;DHT22;35622;52.008;5.426;2022-12-11T11:52:00;8.00;65.20
49731;DHT22;35622;52.008;5.426;2022-12-11T11:54:38;8.10;65.50
49731;DHT22;35622;52.008;5.426;2022-12-11T11:57:28;8.10;65.70
49731;DHT22;35622;52.008;5.426;2022-12-11T12:00:00;8.20;65.50
49731;DHT22;35622;52.008;5.426;2022-12-11T12:02:34;8.20;65.50
49731;DHT22;35622;52.008;5.426;2022-12-11T12:05:00;8.10;65.70
49731;DHT22;35622;52.008;5.426;2022-12-11T12:10:25;8.20;65.30
49731;DHT22;35622;52.008;5.426;2022-12-11T12:15:43;8.10;65.10
49731;DHT22;35622;52.008;5.426;2022-12-11T12:18:21;7.90;65.80
49731;DHT22;35622;52.008;5.426;2022-12-11T12:26:37;7.90;66.10
49731;DHT22;35622;52.008;5.426;2022-12-11T12:29:14;8.00;66.00
49731;DHT22;35622;52.008;5.426;2022-12-11T12:43:01;7.90;66.50
49731;DHT22;35622;52.008;5.426;2022-12-11T12:48:12;7.80;66.50
49731;DHT22;35622;52.008;5.426;2022-12-11T12:50:41;7.70;67.00
49731;DHT22;35622;52.008;5.426;2022-12-11T12:53:22;7.70;67.20
49731;DHT22;35622;52.008;5.426;2022-12-11T12:55:49;7.70;67.30
49731;DHT22;35622;52.008;5.426;2022-12-11T13:00:49;7.90;66.60
49731;DHT22;35622;52.008;5.426;2022-12-11T13:03:20;7.70;66.70
49731;DHT22;35622;52.008;5.426;2022-12-11T13:06:02;7.90;66.70
49731;DHT22;35622;52.008;5.426;2022-12-11T13:08:45;7.90;66.80
49731;DHT22;35622;52.008;5.426;2022-12-11T13:11:14;8.00;66.70
49731;DHT22;35622;52.008;5.426;2022-12-11T13:14:01;7.90;66.70
49731;DHT22;35622;52.008;5.426;2022-12-11T13:16:38;7.60;66.20
49731;DHT22;35622;52.008;5.426;2022-12-11T13:22:20;7.80;66.60
49731;DHT22;35622;52.008;5.426;2022-12-11T13:24:56;7.80;66.40
49731;DHT22;35622;52.008;5.426;2022-12-11T13:30:21;7.80;66.50
49731;DHT22;35622;52.008;5.426;2022-12-11T13:33:13;7.70;66.60
49731;DHT22;35622;52.008;5.426;2022-12-11T13:35:39;7.70;66.90
49731;DHT22;35622;52.008;5.426;2022-12-11T13:38:13;7.70;66.30
49731;DHT22;35622;52.008;5.426;2022-12-11T13:40:41;7.70;66.60
49731;DHT22;35622;52.008;5.426;2022-12-11T13:43:38;7.90;66.20
49731;DHT22;35622;52.008;5.426;2022-12-11T13:46:09;7.90;66.20
49731;DHT22;35622;52.008;5.426;2022-12-11T13:51:02;8.00;65.20
49731;DHT22;35622;52.008;5.426;2022-12-11T13:53:29;8.00;64.90
49731;DHT22;35622;52.008;5.426;2022-12-11T13:56:14;8.00;65.10
49731;DHT22;35622;52.008;5.426;2022-12-11T13:58:40;7.80;65.60
49731;DHT22;35622;52.008;5.426;2022-12-11T14:01:10;7.80;66.00
49731;DHT22;35622;52.008;5.426;2022-12-11T14:03:54;7.80;65.80
49731;DHT22;35622;52.008;5.426;2022-12-11T14:06:20;7.80;66.00
49731;DHT22;35622;52.008;5.426;2022-12-11T14:08:52;7.80;66.20
49731;DHT22;35622;52.008;5.426;2022-12-11T14:11:25;7.70;66.10
49731;DHT22;35622;52.008;5.426;2022-12-11T14:13:56;7.70;65.90
49731;DHT22;35622;52.008;5.426;2022-12-11T14:16:24;7.70;65.80
49731;DHT22;35622;52.008;5.426;2022-12-11T14:18:51;7.60;65.90
49731;DHT22;35622;52.008;5.426;2022-12-11T14:21:19;7.70;66.50
49731;DHT22;35622;52.008;5.426;2022-12-11T14:23:54;7.60;66.50
49731;DHT22;35622;52.008;5.426;2022-12-11T14:26:26;7.60;66.70
49731;DHT22;35622;52.008;5.426;2022-12-11T14:28:52;7.40;66.00
49731;DHT22;35622;52.008;5.426;2022-12-11T14:34:02;7.50;66.60
49731;DHT22;35622;52.008;5.426;2022-12-11T14:36:30;7.50;66.80
49731;DHT22;35622;52.008;5.426;2022-12-11T14:39:02;7.60;66.90
49731;DHT22;35622;52.008;5.426;2022-12-11T14:41:56;7.70;66.30
49731;DHT22;35622;52.008;5.426;2022-12-11T14:44:23;7.80;66.30
49731;DHT22;35622;52.008;5.426;2022-12-11T14:46:53;7.80;66.20
49731;DHT22;35622;52.008;5.426;2022-12-11T14:49:36;7.80;66.20
49731;DHT22;35622;52.008;5.426;2022-12-11T14:52:03;7.70;66.50
49731;DHT22;35622;52.008;5.426;2022-12-11T14:54:37;7.60;66.50
49731;DHT22;35622;52.008;5.426;2022-12-11T14:57:06;7.70;66.50
49731;DHT22;35622;52.008;5.426;2022-12-11T14:59:40;7.80;66.40
49731;DHT22;35622;52.008;5.426;2022-12-11T15:02:22;7.80;66.30
49731;DHT22;35622;52.008;5.426;2022-12-11T15:05:12;7.70;65.80
49731;DHT22;35622;52.008;5.426;2022-12-11T15:07:39;7.60;66.20
49731;DHT22;35622;52.008;5.426;2022-12-11T15:10:05;7.60;66.50
49731;DHT22;35622;52.008;5.426;2022-12-11T15:12:31;7.70;66.70
49731;DHT22;35622;52.008;5.426;2022-12-11T15:15:03;7.70;66.30
49731;DHT22;35622;52.008;5.426;2022-12-11T15:17:30;7.60;66.20
49731;DHT22;35622;52.008;5.426;2022-12-11T15:20:08;7.60;67.00
49731;DHT22;35622;52.008;5.426;2022-12-11T15:22:41;7.50;67.20
49731;DHT22;35622;52.008;5.426;2022-12-11T15:25:21;7.50;67.30
49731;DHT22;35622;52.008;5.426;2022-12-11T15:27:51;7.50;67.50
49731;DHT22;35622;52.008;5.426;2022-12-11T15:30:23;7.40;67.50
49731;DHT22;35622;52.008;5.426;2022-12-11T15:35:38;7.50;67.20
49731;DHT22;35622;52.008;5.426;2022-12-11T15:38:04;7.50;66.80
49731;DHT22;35622;52.008;5.426;2022-12-11T15:40:30;7.40;67.00
49731;DHT22;35622;52.008;5.426;2022-12-11T15:42:57;7.40;67.40
49731;DHT22;35622;52.008;5.426;2022-12-11T15:45:27;7.50;67.50
49731;DHT22;35622;52.008;5.426;2022-12-11T15:47:53;7.40;67.30
49731;DHT22;35622;52.008;5.426;2022-12-11T15:50:24;7.40;67.50
49731;DHT22;35622;52.008;5.426;2022-12-11T15:52:51;7.50;67.10
49731;DHT22;35622;52.008;5.426;2022-12-11T15:55:18;7.40;67.10
49731;DHT22;35622;52.008;5.426;2022-12-11T15:57:56;7.30;67.40
49731;DHT22;35622;52.008;5.426;2022-12-11T16:00:23;7.40;67.70
49731;DHT22;35622;52.008;5.426;2022-12-11T16:02:49;7.40;67.50
49731;DHT22;35622;52.008;5.426;2022-12-11T16:05:15;7.40;67.60
49731;DHT22;35622;52.008;5.426;2022-12-11T16:07:41;7.40;67.50
49731;DHT22;35622;52.008;5.426;2022-12-11T16:10:14;7.40;67.50
49731;DHT22;35622;52.008;5.426;2022-12-11T16:12:40;7.30;67.10
49731;DHT22;35622;52.008;5.426;2022-12-11T16:15:07;6.80;67.10
49731;DHT22;35622;52.008;5.426;2022-12-11T16:17:33;6.90;67.30
49731;DHT22;35622;52.008;5.426;2022-12-11T16:19:58;6.80;66.90
49731;DHT22;35622;52.008;5.426;2022-12-11T16:22:24;7.10;67.40
49731;DHT22;35622;52.008;5.426;2022-12-11T16:24:53;6.80;67.10
49731;DHT22;35622;52.008;5.426;2022-12-11T16:27:19;7.10;66.60
49731;DHT22;35622;52.008;5.426;2022-12-11T16:29:45;6.60;67.00
49731;DHT22;35622;52.008;5.426;2022-12-11T16:32:10;6.70;68.30
49731;DHT22;35622;52.008;5.426;2022-12-11T16:34:36;6.80;67.80
49731;DHT22;35622;52.008;5.426;2022-12-11T16:37:03;6.70;68.10
49731;DHT22;35622;52.008;5.426;2022-12-11T16:39:29;7.00;67.30
49731;DHT22;35622;52.008;5.426;2022-12-11T16:41:55;6.70;67.60
49731;DHT22;35622;52.008;5.426;2022-12-11T16:44:22;6.50;68.50
49731;DHT22;35622;52.008;5.426;2022-12-11T16:46:49;6.60;68.80
49731;DHT22;35622;52.008;5.426;2022-12-11T16:49:15;6.50;69.20
49731;DHT22;35622;52.008;5.426;2022-12-11T16:51:41;6.40;69.60
49731;DHT22;35622;52.008;5.426;2022-12-11T16:54:07;6.90;68.80
49731;DHT22;35622;52.008;5.426;2022-12-11T16:56:33;6.90;68.20
49731;DHT22;35622;52.008;5.426;2022-12-11T16:59:00;7.10;68.40
49731;DHT22;35622;52.008;5.426;2022-12-11T17:01:25;6.90;68.10
49731;DHT22;35622;52.008;5.426;2022-12-11T17:03:51;7.00;68.40
49731;DHT22;35622;52.008;5.426;2022-12-11T17:06:17;7.10;68.40
49731;DHT22;35622;52.008;5.426;2022-12-11T17:08:43;7.00;68.20
49731;DHT22;35622;52.008;5.426;2022-12-11T17:11:11;7.10;68.30
49731;DHT22;35622;52.008;5.426;2022-12-11T17:13:37;7.20;68.30
49731;DHT22;35622;52.008;5.426;2022-12-11T17:16:11;7.10;68.20
49731;DHT22;35622;52.008;5.426;2022-12-11T17:18:38;7.10;68.30
49731;DHT22;35622;52.008;5.426;2022-12-11T17:21:22;7.20;68.50
49731;DHT22;35622;52.008;5.426;2022-12-11T17:23:48;7.30;68.10
49731;DHT22;35622;52.008;5.426;2022-12-11T17:26:15;7.20;67.80
49731;DHT22;35622;52.008;5.426;2022-12-11T17:28:41;7.20;68.00
49731;DHT22;35622;52.008;5.426;2022-12-11T17:31:10;7.20;68.30
49731;DHT22;35622;52.008;5.426;2022-12-11T17:33:37;7.20;68.40